Terminal Aerodrome Forecast
Issued by NWS

Home | Current Version | Previous Version | Text Only | Print | Product List | Glossary Off
Versions: 1 2 3 4 5 6 7 8 9 10 11 12 13

000
FTUS43 KTOP 182323
TAFFOE
TAF
KFOE 182323Z 1900/1924 32019G28KT P6SM SCT050
     FM190200 33010KT P6SM FEW035 SCT150
     FM190900 33007KT P6SM SCT015
     FM191100 36010KT P6SM FEW250=

USA.gov is the U.S. government's official web portal to all federal, state and local government web resources and services.